< < Back
Terminal Aerodrome Forecast


Current Version              Previous Versions:   1  2  3  4  5  6  7  8  9  

Terminal Aerodrome Forecast

148
FTUS42 KFFC 271005 AAA
TAFCSG
TAF AMD
KCSG 271005Z 2710/2806 33005KT P6SM SCT060
      TEMPO 2710/2714 BKN060
     FM271600 33010KT P6SM SCT050
     FM271900 34012G22KT P6SM FEW060
     FM280100 33006KT P6SM SCT250=



Latest METAR

496
SAUS70 KWBC 280100
MTRCSG
METAR KCSG 280051Z 36003KT 10SM CLR 09/M02 A3005 RMK AO2 SLP178
T00941022


USA.gov is the U.S. government's official web portal to all federal, state and local government web resources and services.